Time;durP1;ratioP1;P1;durP2;ratioP2;P2;SDS_P1;SDS_P2;PMS_P1;PMS_P2;Temp;Humidity;BMP_temperature;BMP_pressure;BME280_temperature;BME280_humidity;BME280_pressure;Samples;Min_cycle;Max_cycle;Signal;HPM_P1;HPM_P2
2022/07/07 00:00:52;;;;;;;;;;;;;;;29.45;33.47;94831.44;4969944;28;7003;-63
2022/07/07 00:03:19;;;;;;;;;;;;;;;29.46;33.13;94832.91;4969132;28;7132;-63
2022/07/07 00:05:46;;;;;;;;;;;;;;;29.45;33.55;94828.66;4968366;28;7186;-63
2022/07/07 00:08:12;;;;;;;;;;;;;;;29.44;33.44;94827.16;4972208;28;7189;-63
2022/07/07 00:10:41;;;;;;;;;;;;;;;29.42;32.92;94830.47;4970096;28;7234;-63
2022/07/07 00:13:09;;;;;;;;;;;;;;;29.40;33.36;94833.00;4955146;28;6977;-63
2022/07/07 00:15:35;;;;;;;;;;;;;;;29.42;32.99;94835.25;4952039;28;9032;-63
2022/07/07 00:18:01;;;;;;;;;;;;;;;29.42;32.93;94835.25;4951284;28;7910;-63
2022/07/07 00:20:33;;;;;;;;;;;;;;;29.42;33.30;94829.72;4951284;28;7226;-63
2022/07/07 00:23:02;;;;;;;;;;;;;;;29.41;33.11;94828.19;4965259;28;9111;-63
2022/07/07 00:25:30;;;;;;;;;;;;;;;29.42;33.43;94835.25;4961669;28;7261;-63
2022/07/07 00:27:56;;;;;;;;;;;;;;;29.41;33.16;94831.72;4966106;28;7499;-63
2022/07/07 00:30:27;;;;;;;;;;;;;;;29.42;33.30;94832.47;4980629;28;8923;-63
2022/07/07 00:33:03;;;;;;;;;;;;;;;29.39;32.70;94823.19;5014017;28;7062;-63
2022/07/07 00:35:55;;;;;;;;;;;;;;;29.41;32.64;94831.72;4996115;28;9094;-63
2022/07/07 00:38:22;;;;;;;;;;;;;;;29.39;32.79;94837.03;5018723;28;7076;-63
2022/07/07 00:40:57;;;;;;;;;;;;;;;29.38;33.42;94840.34;4986238;28;9063;-63
2022/07/07 00:43:27;;;;;;;;;;;;;;;29.38;32.73;94840.34;5008831;28;9033;-63
2022/07/07 00:46:07;;;;;;;;;;;;;;;29.37;33.20;94841.59;5017229;28;7078;-63
2022/07/07 00:48:39;;;;;;;;;;;;;;;29.36;33.01;94843.63;4979624;28;8148;-63
2022/07/07 00:51:10;;;;;;;;;;;;;;;29.37;33.33;94838.84;4984312;28;7128;-63
2022/07/07 00:53:36;;;;;;;;;;;;;;;29.36;32.93;94838.09;5010622;28;6996;-63
2022/07/07 00:56:03;;;;;;;;;;;;;;;29.35;32.63;94835.84;5000858;28;9178;-63
2022/07/07 00:58:29;;;;;;;;;;;;;;;29.35;33.26;94838.63;4979266;28;9085;-63
2022/07/07 01:00:55;;;;;;;;;;;;;;;29.33;32.88;94830.84;5013220;28;9364;-63
2022/07/07 01:03:21;;;;;;;;;;;;;;;29.32;33.09;94832.09;4991938;28;7034;-63
2022/07/07 01:05:51;;;;;;;;;;;;;;;29.34;33.14;94837.13;4992103;28;9059;-63
2022/07/07 01:08:17;;;;;;;;;;;;;;;29.34;33.22;94834.38;4999343;28;9121;-63
2022/07/07 01:10:45;;;;;;;;;;;;;;;29.33;33.49;94825.28;5018035;28;7200;-63
2022/07/07 01:13:13;;;;;;;;;;;;;;;29.32;32.60;94826.56;5021002;28;7351;-63
2022/07/07 01:15:39;;;;;;;;;;;;;;;29.30;33.02;94823.56;5023311;28;9276;-63
2022/07/07 01:18:09;;;;;;;;;;;;;;;29.30;33.01;94825.59;5015367;28;8113;-63
2022/07/07 01:20:47;;;;;;;;;;;;;;;29.27;33.55;94826.66;5015567;28;7238;-63
2022/07/07 01:23:16;;;;;;;;;;;;;;;29.23;33.29;94826.94;5014854;28;7480;-63
2022/07/07 01:25:43;;;;;;;;;;;;;;;29.22;33.13;94824.69;5016699;28;9166;-63
2022/07/07 01:28:11;;;;;;;;;;;;;;;29.18;33.39;94816.69;4997385;28;6996;-63
2022/07/07 01:30:38;;;;;;;;;;;;;;;29.19;33.01;94823.00;5016296;28;8808;-63
2022/07/07 01:33:15;;;;;;;;;;;;;;;29.15;33.33;94816.94;4997322;28;9465;-63
2022/07/07 01:35:44;;;;;;;;;;;;;;;29.16;33.48;94819.25;4997816;28;7501;-63
2022/07/07 01:38:10;;;;;;;;;;;;;;;29.15;33.32;94816.94;5026657;28;7144;-63
2022/07/07 01:40:37;;;;;;;;;;;;;;;29.14;32.78;94821.75;5012650;28;6946;-63
2022/07/07 01:43:06;;;;;;;;;;;;;;;29.12;33.25;94815.25;5014453;28;7060;-63
2022/07/07 01:45:32;;;;;;;;;;;;;;;29.13;32.91;94817.47;5002334;28;7385;-63
2022/07/07 01:48:24;;;;;;;;;;;;;;;29.11;33.07;94814.50;4993341;28;7586;-63
2022/07/07 01:50:58;;;;;;;;;;;;;;;29.11;33.06;94811.72;5014733;28;7221;-63
2022/07/07 01:53:27;;;;;;;;;;;;;;;29.09;33.40;94809.47;5007949;28;7215;-63
2022/07/07 01:55:55;;;;;;;;;;;;;;;29.08;32.90;94816.28;5017654;28;9124;-63
2022/07/07 01:58:36;;;;;;;;;;;;;;;29.08;33.74;94819.06;5009409;28;9113;-63
2022/07/07 02:01:16;;;;;;;;;;;;;;;29.06;32.92;94816.06;5005147;28;7395;-63
2022/07/07 02:03:43;;;;;;;;;;;;;;;29.07;33.04;94820.34;5012187;28;7214;-63
2022/07/07 02:06:11;;;;;;;;;;;;;;;29.05;32.93;94814.56;4980123;28;7097;-63
2022/07/07 02:08:37;;;;;;;;;;;;;;;29.04;33.10;94818.59;5011721;28;7174;-63
2022/07/07 02:11:15;;;;;;;;;;;;;;;29.05;32.92;94825.66;4994136;28;7385;-63
2022/07/07 02:13:43;;;;;;;;;;;;;;;29.04;33.39;94817.84;5018796;28;7205;-63
2022/07/07 02:16:13;;;;;;;;;;;;;;;29.03;33.09;94824.69;4994035;28;7247;-63
2022/07/07 02:19:06;;;;;;;;;;;;;;;29.02;33.13;94826.69;4993362;28;9155;-63
2022/07/07 02:21:39;;;;;;;;;;;;;;;29.02;33.05;94831.47;5011138;28;7255;-63
2022/07/07 02:24:05;;;;;;;;;;;;;;;29.03;32.75;94827.44;5003027;28;7025;-63
2022/07/07 02:26:33;;;;;;;;;;;;;;;28.99;33.40;94821.47;5016105;28;6991;-63
2022/07/07 02:29:03;;;;;;;;;;;;;;;29.01;33.26;94825.19;5010218;28;9053;-63
2022/07/07 02:31:32;;;;;;;;;;;;;;;28.99;33.17;94819.41;4990758;28;7271;-63
2022/07/07 02:33:58;;;;;;;;;;;;;;;28.99;33.41;94822.19;5015593;28;8770;-63
2022/07/07 02:36:25;;;;;;;;;;;;;;;29.00;32.97;94814.63;4997407;28;7877;-63
2022/07/07 02:38:51;;;;;;;;;;;;;;;28.98;32.99;94814.41;5009325;28;6975;-63
2022/07/07 02:41:20;;;;;;;;;;;;;;;28.97;32.88;94802.56;4994586;28;6981;-63
2022/07/07 02:43:47;;;;;;;;;;;;;;;28.97;33.51;94810.88;5014982;28;9134;-63
2022/07/07 02:46:13;;;;;;;;;;;;;;;28.97;32.63;94808.13;5011574;28;8814;-64
2022/07/07 02:48:45;;;;;;;;;;;;;;;28.97;33.06;94818.47;4979846;28;7285;-63
2022/07/07 02:51:12;;;;;;;;;;;;;;;28.95;32.89;94816.19;4999439;28;7364;-63
2022/07/07 02:53:40;;;;;;;;;;;;;;;28.95;33.34;94812.69;4992788;28;9054;-63
2022/07/07 02:56:18;;;;;;;;;;;;;;;28.95;33.65;94816.19;5006431;28;7359;-63
2022/07/07 02:58:44;;;;;;;;;;;;;;;28.96;33.20;94811.41;4984525;28;7470;-63
2022/07/07 03:01:12;;;;;;;;;;;;;;;28.94;33.50;94809.19;4994928;28;7902;-63
2022/07/07 03:03:39;;;;;;;;;;;;;;;28.93;33.22;94802.13;4994439;28;8652;-63
2022/07/07 03:06:18;;;;;;;;;;;;;;;28.94;33.11;94803.66;5009696;28;9217;-63
2022/07/07 03:08:47;;;;;;;;;;;;;;;28.92;33.26;94800.66;5008504;28;8708;-63
2022/07/07 03:11:15;;;;;;;;;;;;;;;28.93;33.08;94798.59;5014622;28;7266;-63
2022/07/07 03:13:41;;;;;;;;;;;;;;;28.92;33.64;94791.59;5002886;28;7265;-63
2022/07/07 03:16:07;;;;;;;;;;;;;;;28.90;33.08;94792.13;4993262;28;7197;-63
2022/07/07 03:18:35;;;;;;;;;;;;;;;28.90;33.16;94792.13;5005521;28;7041;-63
2022/07/07 03:21:13;;;;;;;;;;;;;;;28.91;33.75;94798.38;4996957;28;9165;-63
2022/07/07 03:23:39;;;;;;;;;;;;;;;28.88;33.77;94793.91;4991432;28;7235;-65
2022/07/07 03:26:15;;;;;;;;;;;;;;;28.87;33.54;94795.91;4995448;28;7011;-62
2022/07/07 03:28:55;;;;;;;;;;;;;;;28.86;33.50;94790.91;5020103;28;7222;-62
2022/07/07 03:31:30;;;;;;;;;;;;;;;28.87;33.51;94793.16;4993182;28;7082;-62
2022/07/07 03:33:57;;;;;;;;;;;;;;;28.87;33.39;94793.16;4994094;28;7256;-62
2022/07/07 03:36:42;;;;;;;;;;;;;;;28.87;33.43;94787.63;4983538;28;7070;-62
2022/07/07 03:39:25;;;;;;;;;;;;;;;28.86;33.50;94779.84;5006740;28;8843;-62
2022/07/07 03:41:51;;;;;;;;;;;;;;;28.87;33.48;94786.84;4996070;28;7119;-62
2022/07/07 03:44:20;;;;;;;;;;;;;;;28.87;33.22;94792.41;5028412;28;7349;-62
2022/07/07 03:47:02;;;;;;;;;;;;;;;28.86;33.42;94785.38;4995667;28;8763;-62
2022/07/07 03:49:35;;;;;;;;;;;;;;;28.86;33.42;94796.47;5012812;28;7066;-62
2022/07/07 03:52:04;;;;;;;;;;;;;;;28.86;33.49;94790.91;4992291;28;7291;-62
2022/07/07 03:54:35;;;;;;;;;;;;;;;28.86;33.23;94799.22;4995534;28;7360;-63
2022/07/07 03:57:01;;;;;;;;;;;;;;;28.84;33.49;94794.19;4991696;28;7363;-62
2022/07/07 03:59:28;;;;;;;;;;;;;;;28.87;33.36;94798.69;4987156;28;9032;-63
2022/07/07 04:02:03;;;;;;;;;;;;;;;28.88;33.38;94802.22;5010378;28;9059;-62
2022/07/07 04:04:30;;;;;;;;;;;;;;;28.86;33.92;94810.31;4993435;28;7347;-62
2022/07/07 04:07:08;;;;;;;;;;;;;;;28.84;33.85;94794.19;5016329;28;7157;-62
2022/07/07 04:09:34;;;;;;;;;;;;;;;28.85;33.86;94804.00;4985362;28;7005;-62
2022/07/07 04:12:00;;;;;;;;;;;;;;;28.87;33.47;94803.47;4993437;28;8252;-63
2022/07/07 04:14:26;;;;;;;;;;;;;;;28.85;33.85;94801.25;5014087;28;7388;-62
2022/07/07 04:16:53;;;;;;;;;;;;;;;28.86;33.53;94802.72;4996399;28;7163;-62
2022/07/07 04:19:21;;;;;;;;;;;;;;;28.85;33.90;94797.72;5013461;28;7327;-62
2022/07/07 04:21:47;;;;;;;;;;;;;;;28.86;34.00;94797.19;5013181;28;8467;-62
2022/07/07 04:24:13;;;;;;;;;;;;;;;28.88;33.71;94802.22;4985854;28;9417;-62
2022/07/07 04:26:39;;;;;;;;;;;;;;;28.88;33.92;94800.16;4994452;28;9293;-62
2022/07/07 04:29:05;;;;;;;;;;;;;;;28.89;33.84;94803.69;4999809;28;7532;-62
2022/07/07 04:31:43;;;;;;;;;;;;;;;28.88;33.52;94808.47;5000424;28;6982;-62
2022/07/07 04:34:26;;;;;;;;;;;;;;;28.84;33.27;94799.72;5007019;28;7134;-61
2022/07/07 04:37:05;;;;;;;;;;;;;;;28.82;33.87;94796.72;4995142;28;7034;-61
2022/07/07 04:39:39;;;;;;;;;;;;;;;28.84;33.63;94799.00;5011399;28;7260;-62
2022/07/07 04:42:05;;;;;;;;;;;;;;;28.84;33.62;94793.47;5009176;28;9101;-62
2022/07/07 04:44:37;;;;;;;;;;;;;;;28.82;34.03;94788.44;5002042;28;9076;-62
2022/07/07 04:47:05;;;;;;;;;;;;;;;28.85;33.98;94792.94;5017372;28;9518;-62
2022/07/07 04:49:40;;;;;;;;;;;;;;;28.84;33.63;94796.97;5011229;28;7070;-62
2022/07/07 04:52:14;;;;;;;;;;;;;;;28.83;34.24;94794.72;5006737;28;7205;-62
2022/07/07 04:54:41;;;;;;;;;;;;;;;28.84;33.45;94785.16;5000350;28;8835;-62
2022/07/07 04:57:08;;;;;;;;;;;;;;;28.82;33.91;94785.66;5011931;28;7372;-62
2022/07/07 04:59:41;;;;;;;;;;;;;;;28.80;33.63;94785.44;5013161;28;6973;-62
2022/07/07 05:02:18;;;;;;;;;;;;;;;28.81;33.77;94781.41;4998093;28;7130;-62
2022/07/07 05:04:52;;;;;;;;;;;;;;;28.80;34.10;94774.38;5015437;28;7532;-61
2022/07/07 05:07:18;;;;;;;;;;;;;;;28.77;34.26;94775.44;4998936;28;7029;-61
2022/07/07 05:09:45;;;;;;;;;;;;;;;28.74;33.89;94768.16;5016803;28;7318;-62
2022/07/07 05:12:13;;;;;;;;;;;;;;;28.69;34.20;94763.44;5010548;28;7045;-62
2022/07/07 05:14:39;;;;;;;;;;;;;;;28.70;34.05;94766.94;4998893;28;8946;-62
2022/07/07 05:17:05;;;;;;;;;;;;;;;28.70;34.30;94776.00;5010209;28;7244;-62
2022/07/07 05:19:47;;;;;;;;;;;;;;;28.71;34.23;94785.06;5013900;28;8789;-62
2022/07/07 05:22:22;;;;;;;;;;;;;;;28.71;34.11;94780.25;4996031;28;6988;-61
2022/07/07 05:24:49;;;;;;;;;;;;;;;28.69;33.95;94780.03;5004711;28;8960;-62
2022/07/07 05:27:17;;;;;;;;;;;;;;;28.70;34.24;94784.31;5001411;28;7051;-62
2022/07/07 05:29:46;;;;;;;;;;;;;;;28.71;37.40;94790.59;4982784;28;7135;-62
2022/07/07 05:32:14;;;;;;;;;;;;;;;28.69;39.91;94788.34;5006110;28;7288;-61
2022/07/07 05:34:42;;;;;;;;;;;;;;;28.66;35.57;94783.88;5005469;28;7047;-62
2022/07/07 05:37:09;;;;;;;;;;;;;;;28.67;35.17;94793.66;5010684;28;8992;-62
2022/07/07 05:39:47;;;;;;;;;;;;;;;28.68;35.35;94803.47;4986777;28;7999;-61
2022/07/07 05:42:15;;;;;;;;;;;;;;;28.65;34.98;94796.19;4994715;28;9270;-61
2022/07/07 05:44:48;;;;;;;;;;;;;;;28.65;34.64;94793.44;4993736;28;7083;-61
2022/07/07 05:47:15;;;;;;;;;;;;;;;28.63;34.51;94807.03;4997078;28;9483;-61
2022/07/07 05:49:44;;;;;;;;;;;;;;;28.63;34.46;94814.59;5009924;28;9396;-61
2022/07/07 05:52:21;;;;;;;;;;;;;;;28.59;34.44;94814.88;4993690;28;7115;-61
2022/07/07 05:54:53;;;;;;;;;;;;;;;28.63;34.26;94812.56;4990197;28;7000;-62
2022/07/07 05:57:27;;;;;;;;;;;;;;;28.63;34.18;94818.13;5009071;28;7316;-61
2022/07/07 06:00:11;;;;;;;;;;;;;;;28.62;34.48;94811.09;5009162;28;9202;-62
2022/07/07 06:02:37;;;;;;;;;;;;;;;28.59;34.29;94811.38;4987466;28;9398;-61
2022/07/07 06:05:04;;;;;;;;;;;;;;;28.61;34.05;94811.59;5009448;28;7166;-62
2022/07/07 06:07:33;;;;;;;;;;;;;;;28.62;34.34;94805.56;5012480;28;8834;-63
2022/07/07 06:09:59;;;;;;;;;;;;;;;28.59;34.22;94812.13;5001507;28;7273;-62
2022/07/07 06:12:25;;;;;;;;;;;;;;;28.57;34.67;94802.81;5012456;28;7007;-62
2022/07/07 06:14:53;;;;;;;;;;;;;;;28.54;35.00;94807.38;4997026;28;8776;-62
2022/07/07 06:17:23;;;;;;;;;;;;;;;28.58;34.44;94813.38;4993955;28;9646;-63
2022/07/07 06:20:20;;;;;;;;;;;;;;;28.56;34.95;94815.88;4995282;28;7160;-64
2022/07/07 06:22:48;;;;;;;;;;;;;;;28.57;34.95;94820.19;4969561;28;9212;-62
2022/07/07 06:25:16;;;;;;;;;;;;;;;28.59;34.94;94809.34;4957445;28;7097;-64
2022/07/07 06:27:44;;;;;;;;;;;;;;;28.60;34.52;94808.06;4979990;28;7408;-63
2022/07/07 06:30:11;;;;;;;;;;;;;;;28.59;34.22;94811.38;4962258;28;6985;-63
2022/07/07 06:32:37;;;;;;;;;;;;;;;28.58;34.57;94807.13;4963860;28;7220;-63
2022/07/07 06:35:04;;;;;;;;;;;;;;;28.60;34.41;94810.84;4976979;28;9452;-63
2022/07/07 06:37:30;;;;;;;;;;;;;;;28.60;34.45;94812.88;4963850;28;7274;-63
2022/07/07 06:39:56;;;;;;;;;;;;;;;28.59;34.69;94808.59;4967714;28;7402;-63
2022/07/07 06:42:36;;;;;;;;;;;;;;;28.60;34.92;94810.84;4971878;28;9118;-63
2022/07/07 06:45:11;;;;;;;;;;;;;;;28.59;34.28;94812.13;4981787;28;7561;-63
2022/07/07 06:47:40;;;;;;;;;;;;;;;28.59;34.52;94809.34;4965426;28;7267;-63
2022/07/07 06:50:37;;;;;;;;;;;;;;;28.61;34.69;94820.66;4973877;28;7294;-63
2022/07/07 06:53:03;;;;;;;;;;;;;;;28.62;34.63;94821.41;4870497;29;7277;-63
2022/07/07 06:55:30;;;;;;;;;;;;;;;28.62;34.50;94821.41;4874495;29;9043;-63
2022/07/07 06:57:59;;;;;;;;;;;;;;;28.61;34.55;94823.41;4872787;29;9196;-63
2022/07/07 07:00:25;;;;;;;;;;;;;;;28.63;34.53;94817.34;4893999;29;7251;-63
2022/07/07 07:03:00;;;;;;;;;;;;;;;28.64;34.68;94821.63;4877316;29;6881;-63
2022/07/07 07:05:34;;;;;;;;;;;;;;;28.62;34.72;94816.63;4876583;29;7240;-63
2022/07/07 07:08:00;;;;;;;;;;;;;;;28.62;34.48;94822.16;4895343;29;7241;-63
2022/07/07 07:10:29;;;;;;;;;;;;;;;28.63;34.70;94814.59;4880510;29;7875;-64
2022/07/07 07:13:00;;;;;;;;;;;;;;;28.63;34.85;94812.56;4874251;29;7077;-63
2022/07/07 07:15:28;;;;;;;;;;;;;;;28.63;34.85;94818.13;4894780;29;9128;-63
2022/07/07 07:18:06;;;;;;;;;;;;;;;28.63;34.92;94822.88;4881657;29;7146;-63
2022/07/07 07:20:35;;;;;;;;;;;;;;;28.63;34.44;94820.88;4880044;29;7300;-63
2022/07/07 07:23:04;;;;;;;;;;;;;;;28.62;34.77;94824.19;4893347;29;6982;-63
2022/07/07 07:25:33;;;;;;;;;;;;;;;28.62;34.51;94827.69;4894871;29;8915;-64
2022/07/07 07:28:20;;;;;;;;;;;;;;;28.63;34.65;94829.19;4890834;29;7085;-64
2022/07/07 07:30:50;;;;;;;;;;;;;;;28.64;34.76;94830.69;5011642;28;7351;-63
2022/07/07 07:33:32;;;;;;;;;;;;;;;28.64;34.71;94827.94;5009364;28;9211;-63
2022/07/07 07:35:59;;;;;;;;;;;;;;;28.65;34.80;94823.88;5005578;28;9443;-63
2022/07/07 07:38:26;;;;;;;;;;;;;;;28.65;34.24;94817.59;4984368;28;7068;-64
2022/07/07 07:40:57;;;;;;;;;;;;;;;28.65;34.78;94817.59;4990826;28;7331;-63
2022/07/07 07:43:30;;;;;;;;;;;;;;;28.65;34.04;94820.34;4966936;28;6975;-62
2022/07/07 07:46:19;;;;;;;;;;;;;;;28.65;34.38;94815.56;5009538;28;7060;-63
2022/07/07 07:49:14;;;;;;;;;;;;;;;28.65;34.67;94815.56;4991423;28;8675;-62
2022/07/07 07:51:40;;;;;;;;;;;;;;;28.64;34.62;94819.63;4944316;29;7264;-62
2022/07/07 07:54:23;;;;;;;;;;;;;;;28.64;34.84;94821.63;4926923;29;7514;-62
2022/07/07 07:57:05;;;;;;;;;;;;;;;28.63;34.57;94831.94;4943426;29;7299;-63
2022/07/07 07:59:48;;;;;;;;;;;;;;;28.62;34.97;94838.78;4942662;28;7219;-63
2022/07/07 08:02:45;;;;;;;;;;;;;;;28.64;34.24;94829.94;4929843;29;7008;-63
2022/07/07 08:05:15;;;;;;;;;;;;;;;28.63;34.09;94826.41;4885595;29;7058;-63
2022/07/07 08:07:42;;;;;;;;;;;;;;;28.62;34.24;94813.84;4871576;29;7353;-62
2022/07/07 08:10:13;;;;;;;;;;;;;;;28.65;34.82;94825.88;4888598;29;7063;-63
2022/07/07 08:12:40;;;;;;;;;;;;;;;28.63;34.11;94817.34;4879724;29;6990;-62
2022/07/07 08:15:10;;;;;;;;;;;;;;;28.64;34.04;94819.63;4879539;29;7003;-62
2022/07/07 08:17:36;;;;;;;;;;;;;;;28.64;34.16;94814.09;4877503;29;7198;-63
2022/07/07 08:20:11;;;;;;;;;;;;;;;28.63;34.17;94812.56;4886628;29;7018;-63
2022/07/07 08:22:53;;;;;;;;;;;;;;;28.64;34.47;94807.78;4877812;29;7577;-63
2022/07/07 08:25:24;;;;;;;;;;;;;;;28.63;33.97;94803.50;4894712;29;7167;-62
2022/07/07 08:28:00;;;;;;;;;;;;;;;28.62;33.98;94800.03;4895449;29;9232;-63
2022/07/07 08:30:41;;;;;;;;;;;;;;;28.64;34.64;94805.03;4929045;28;6929;-63
2022/07/07 08:33:07;;;;;;;;;;;;;;;28.64;34.34;94808.56;4923780;28;8003;-63
2022/07/07 08:35:35;;;;;;;;;;;;;;;28.63;34.57;94801.50;4922373;29;9443;-63
2022/07/07 08:38:06;;;;;;;;;;;;;;;28.62;34.22;94802.78;4916362;29;6965;-62
2022/07/07 08:40:36;;;;;;;;;;;;;;;28.65;34.29;94809.28;4922115;28;7249;-63
2022/07/07 08:43:02;;;;;;;;;;;;;;;28.65;34.71;94810.03;4994731;28;7364;-63
2022/07/07 08:45:33;;;;;;;;;;;;;;;28.65;34.62;94812.03;4990610;28;7279;-62
2022/07/07 08:48:09;;;;;;;;;;;;;;;28.63;34.04;94809.81;5009496;28;7176;-61
2022/07/07 08:50:40;;;;;;;;;;;;;;;28.66;34.16;94808.03;4987131;28;8053;-61
2022/07/07 08:53:20;;;;;;;;;;;;;;;28.64;33.96;94816.84;5006806;28;7546;-61
2022/07/07 08:55:49;;;;;;;;;;;;;;;28.65;33.99;94814.81;5006625;28;9049;-62
2022/07/07 08:58:21;;;;;;;;;;;;;;;28.65;33.78;94815.56;4997466;28;7230;-62
2022/07/07 09:00:47;;;;;;;;;;;;;;;28.64;34.12;94808.56;5019361;28;7494;-62
2022/07/07 09:03:27;;;;;;;;;;;;;;;28.67;33.94;94815.03;5013220;28;7258;-62
2022/07/07 09:05:55;;;;;;;;;;;;;;;28.64;34.24;94808.56;4997329;28;7344;-62
2022/07/07 09:08:23;;;;;;;;;;;;;;;28.68;34.21;94816.56;5009349;28;9230;-62
2022/07/07 09:10:50;;;;;;;;;;;;;;;28.66;34.15;94817.09;4993079;28;8363;-62
2022/07/07 09:13:21;;;;;;;;;;;;;;;28.66;34.16;94828.16;4993481;28;7073;-62
2022/07/07 09:15:47;;;;;;;;;;;;;;;28.66;34.10;94819.09;4990490;28;9365;-62
2022/07/07 09:18:38;;;;;;;;;;;;;;;28.66;34.21;94828.16;5012364;28;8855;-62
2022/07/07 09:21:25;;;;;;;;;;;;;;;28.66;34.11;94830.16;5011570;28;7404;-62
2022/07/07 09:23:53;;;;;;;;;;;;;;;28.66;34.45;94828.16;5000235;28;8492;-62
2022/07/07 09:26:41;;;;;;;;;;;;;;;28.68;34.15;94816.56;5009583;28;7607;-62
2022/07/07 09:29:18;;;;;;;;;;;;;;;28.66;34.22;94817.09;5004325;28;7060;-61
2022/07/07 09:32:04;;;;;;;;;;;;;;;28.66;34.55;94819.84;5014261;28;7387;-61
2022/07/07 09:34:38;;;;;;;;;;;;;;;28.67;34.27;94824.09;4982009;28;7269;-62
2022/07/07 09:39:55;;;;;;;;;;;;;;;28.65;34.39;94825.88;5008747;28;7109;-62
2022/07/07 09:42:30;;;;;;;;;;;;;;;28.68;34.64;94828.38;4999122;28;7349;-61
2022/07/07 09:45:04;;;;;;;;;;;;;;;28.68;34.14;94824.84;5006622;28;9415;-62
2022/07/07 09:47:35;;;;;;;;;;;;;;;28.68;34.82;94817.31;4995905;28;7211;-62
2022/07/07 09:50:07;;;;;;;;;;;;;;;28.71;34.39;94815.53;5011307;28;7286;-61
2022/07/07 09:52:36;;;;;;;;;;;;;;;28.72;34.33;94823.28;4963836;28;9098;-61
2022/07/07 09:55:08;;;;;;;;;;;;;;;28.72;34.11;94825.31;4980996;28;8805;-62
2022/07/07 09:57:36;;;;;;;;;;;;;;;28.71;34.05;94827.31;4990691;28;9096;-62
2022/07/07 10:00:05;;;;;;;;;;;;;;;28.71;34.39;94830.09;5011993;28;7243;-61
2022/07/07 10:02:41;;;;;;;;;;;;;;;28.72;34.28;94826.06;5012416;28;7245;-62
2022/07/07 10:05:07;;;;;;;;;;;;;;;28.72;34.23;94825.31;5016331;28;8822;-62
2022/07/07 10:07:49;;;;;;;;;;;;;;;28.71;34.41;94832.84;4991502;28;9209;-62
2022/07/07 10:10:21;;;;;;;;;;;;;;;28.73;34.42;94844.16;5002306;28;8301;-62
2022/07/07 10:12:49;;;;;;;;;;;;;;;28.74;34.49;94851.19;5011693;28;7243;-61
2022/07/07 10:15:15;;;;;;;;;;;;;;;28.73;34.06;94852.47;5004227;28;6972;-62
2022/07/07 10:17:43;;;;;;;;;;;;;;;28.74;34.11;94861.53;4990115;28;7083;-61
2022/07/07 10:20:11;;;;;;;;;;;;;;;28.74;34.38;94856.75;4975910;28;9134;-61
2022/07/07 10:22:40;;;;;;;;;;;;;;;28.72;34.03;94853.00;4992534;28;7060;-61
2022/07/07 10:25:09;;;;;;;;;;;;;;;28.75;34.38;94874.09;4990847;28;6989;-62
2022/07/07 10:27:43;;;;;;;;;;;;;;;28.76;33.99;94868.03;5009072;28;7573;-61
2022/07/07 10:30:28;;;;;;;;;;;;;;;28.79;34.77;94877.31;5008892;28;9371;-62
2022/07/07 10:33:04;;;;;;;;;;;;;;;28.81;34.65;94875.53;5004034;28;8842;-62
2022/07/07 10:35:46;;;;;;;;;;;;;;;28.82;34.94;94882.56;4998647;28;7284;-61
2022/07/07 10:38:23;;;;;;;;;;;;;;;28.85;34.59;94889.09;5006192;28;7403;-62
2022/07/07 10:40:55;;;;;;;;;;;;;;;28.84;34.54;94891.09;4990549;28;9129;-61
2022/07/07 10:43:42;;;;;;;;;;;;;;;28.85;35.04;94894.63;4997876;28;7291;-61
2022/07/07 10:46:08;;;;;;;;;;;;;;;28.85;34.57;94895.38;4992839;28;9210;-61
2022/07/07 10:48:44;;;;;;;;;;;;;;;28.85;34.54;94903.69;5012712;28;8131;-61
2022/07/07 10:51:57;;;;;;;;;;;;;;;28.83;35.03;94892.38;5008708;28;10035;-61
2022/07/07 10:54:43;;;;;;;;;;;;;;;28.82;34.79;94893.63;5000435;28;8919;-61
2022/07/07 10:57:23;;;;;;;;;;;;;;;28.82;35.59;94890.88;4993980;28;7088;-61
2022/07/07 11:00:27;;;;;;;;;;;;;;;28.82;35.36;94901.19;5002525;28;7297;-60
2022/07/07 11:03:05;;;;;;;;;;;;;;;28.81;35.06;94899.72;4986225;28;7242;-60
2022/07/07 11:05:47;;;;;;;;;;;;;;;28.80;35.71;94892.66;4993883;28;7065;-62
2022/07/07 11:08:23;;;;;;;;;;;;;;;28.79;35.46;94885.63;4981756;28;7162;-61
2022/07/07 11:10:52;;;;;;;;;;;;;;;28.79;35.86;94880.84;4981322;28;6991;-62
2022/07/07 11:13:35;;;;;;;;;;;;;;;28.82;35.60;94882.56;4999528;28;7616;-62
2022/07/07 11:16:20;;;;;;;;;;;;;;;28.85;35.55;94876.00;4989169;28;9452;-62
2022/07/07 11:18:58;;;;;;;;;;;;;;;28.85;35.28;94870.47;5002278;28;7017;-62
2022/07/07 11:21:46;;;;;;;;;;;;;;;28.83;35.52;94870.22;4976395;28;7344;-62
2022/07/07 11:24:21;;;;;;;;;;;;;;;28.86;35.36;94879.53;4996139;28;9273;-62
2022/07/07 11:27:02;;;;;;;;;;;;;;;28.83;35.01;94870.22;4975185;28;8989;-62
2022/07/07 11:29:31;;;;;;;;;;;;;;;28.83;35.19;94870.22;4994186;28;7258;-61
2022/07/07 11:32:15;;;;;;;;;;;;;;;28.81;34.78;94864.47;4993207;28;6860;-61
2022/07/07 11:34:53;;;;;;;;;;;;;;;28.80;35.32;94870.50;4972989;28;7168;-62
2022/07/07 11:37:27;;;;;;;;;;;;;;;28.82;35.16;94868.72;5011922;28;7640;-63
2022/07/07 11:39:55;;;;;;;;;;;;;;;28.81;35.36;94866.47;4993060;28;7232;-62
2022/07/07 11:42:41;;;;;;;;;;;;;;;28.83;35.13;94863.94;4994672;28;9060;-63
2022/07/07 11:45:37;;;;;;;;;;;;;;;28.84;35.08;94866.19;4992434;28;7249;-63
2022/07/07 11:48:05;;;;;;;;;;;;;;;28.87;34.68;94865.16;5007547;28;7362;-62
2022/07/07 11:50:38;;;;;;;;;;;;;;;28.91;34.67;94867.59;4982282;28;7369;-62
2022/07/07 11:53:21;;;;;;;;;;;;;;;28.89;35.87;94867.38;5008871;28;6973;-62
2022/07/07 11:56:02;;;;;;;;;;;;;;;28.90;35.48;94858.56;4995415;28;6972;-62
2022/07/07 11:58:30;;;;;;;;;;;;;;;28.91;35.67;94848.97;5009728;28;9061;-62
2022/07/07 12:00:58;;;;;;;;;;;;;;;28.91;35.94;94843.44;4991473;28;9070;-63
2022/07/07 12:03:38;;;;;;;;;;;;;;;28.93;35.47;94843.66;4996676;28;7246;-62
2022/07/07 12:06:05;;;;;;;;;;;;;;;28.94;35.51;94849.97;5011509;28;7657;-62
2022/07/07 12:08:34;;;;;;;;;;;;;;;28.92;35.34;94847.72;4992295;28;7000;-61
2022/07/07 12:11:06;;;;;;;;;;;;;;;28.89;34.64;94857.06;5013853;28;7417;-62
2022/07/07 12:13:32;;;;;;;;;;;;;;;28.88;34.91;94850.00;5011766;28;7070;-62
2022/07/07 12:16:03;;;;;;;;;;;;;;;28.85;34.52;94859.38;4998542;28;9465;-63
2022/07/07 12:19:16;;;;;;;;;;;;;;;28.82;35.04;94857.66;4994517;28;8841;-62
2022/07/07 12:21:46;;;;;;;;;;;;;;;28.84;35.57;94871.72;4935780;28;7240;-62
2022/07/07 12:24:34;;;;;;;;;;;;;;;28.86;35.00;94877.47;4930735;29;9404;-62
2022/07/07 12:27:19;;;;;;;;;;;;;;;28.89;35.93;94881.22;4920657;29;9069;-62
2022/07/07 12:30:31;;;;;;;;;;;;;;;28.89;36.08;94890.28;4936771;28;7236;-62
2022/07/07 12:32:59;;;;;;;;;;;;;;;28.88;35.63;94879.75;4878225;29;6961;-62
2022/07/07 12:35:33;;;;;;;;;;;;;;;28.88;35.79;94888.06;4870144;29;7185;-62
2022/07/07 12:38:03;;;;;;;;;;;;;;;28.89;36.01;94892.31;4876773;29;7243;-61
2022/07/07 12:40:31;;;;;;;;;;;;;;;28.86;36.00;94885.78;4859645;29;7195;-62
2022/07/07 12:43:06;;;;;;;;;;;;;;;28.89;36.00;94882.00;4876106;29;7063;-62
2022/07/07 12:45:45;;;;;;;;;;;;;;;28.89;36.39;94884.75;4858546;29;7129;-62
2022/07/07 12:48:17;;;;;;;;;;;;;;;28.90;36.23;94877.97;4870763;29;7241;-62
2022/07/07 12:50:43;;;;;;;;;;;;;;;28.90;35.90;94886.28;4870774;29;7241;-61
2022/07/07 12:53:10;;;;;;;;;;;;;;;28.92;36.57;94888.50;4855767;29;7220;-62
2022/07/07 12:55:40;;;;;;;;;;;;;;;28.91;36.63;94887.00;4872262;29;6977;-62
2022/07/07 12:58:24;;;;;;;;;;;;;;;28.93;36.12;94879.66;4892351;28;7330;-62
2022/07/07 13:01:04;;;;;;;;;;;;;;;28.94;36.50;94883.19;4931430;28;7421;-62
2022/07/07 13:04:05;;;;;;;;;;;;;;;28.93;36.49;94879.66;4910520;29;7265;-62
2022/07/07 13:06:42;;;;;;;;;;;;;;;28.94;36.22;94883.19;4930776;29;9053;-62
2022/07/07 13:09:08;;;;;;;;;;;;;;;28.94;36.67;94880.44;4935216;28;7508;-62
2022/07/07 13:11:33;;;;;;;;;;;;;;;28.95;36.51;94881.91;4995369;28;9037;-62
2022/07/07 13:14:02;;;;;;;;;;;;;;;28.92;36.25;94892.03;4982230;28;8928;-62
2022/07/07 13:16:36;;;;;;;;;;;;;;;28.97;36.37;94896.00;4999600;28;7283;-62
2022/07/07 13:19:05;;;;;;;;;;;;;;;28.93;36.38;94882.44;4980808;28;7231;-62
2022/07/07 13:21:33;;;;;;;;;;;;;;;28.97;36.65;94880.13;4993463;28;8219;-62
2022/07/07 13:24:10;;;;;;;;;;;;;;;28.98;36.22;94875.34;5009632;28;7426;-62
2022/07/07 13:26:36;;;;;;;;;;;;;;;28.96;35.88;94875.13;5014394;28;7258;-62
2022/07/07 13:29:03;;;;;;;;;;;;;;;28.98;35.95;94881.63;4994695;28;9074;-62